Aviation Digital Data Service (ADDS)

Output produced by TAFs form (1213 UTC 29 May 2015)
found at http://aviationweather.gov/adds/tafs/
 
KTEX 291127Z 2912/3012 14006KT P6SM SCT250 
     FM291300 14005KT P6SM SCT200 
     FM291900 24006KT P6SM VCTS SCT070CB BKN120 
     FM300200 14006KT P6SM SCT090